createdAt,value
2018-05-17T00:01:29.179Z,43.80
2018-05-17T00:03:59.180Z,44.00
2018-05-17T00:06:28.473Z,41.20
2018-05-17T00:08:58.716Z,39.40
2018-05-17T00:11:28.881Z,37.00
2018-05-17T00:14:00.446Z,35.20
2018-05-17T00:16:29.913Z,34.60
2018-05-17T00:18:59.606Z,37.00
2018-05-17T00:21:29.701Z,35.20
2018-05-17T00:23:59.262Z,35.40
2018-05-17T00:26:29.466Z,35.40
2018-05-17T00:28:58.719Z,34.20
2018-05-17T00:31:27.861Z,33.40
2018-05-17T00:33:57.049Z,34.20
2018-05-17T00:36:26.128Z,34.60
2018-05-17T00:38:55.116Z,36.80
2018-05-17T00:41:24.032Z,35.80
2018-05-17T00:43:53.497Z,37.40
2018-05-17T00:46:23.617Z,40.40
2018-05-17T00:48:53.217Z,39.40
2018-05-17T00:51:22.484Z,44.00
2018-05-17T00:53:53.826Z,41.20
2018-05-17T00:56:23.096Z,40.80
2018-05-17T00:58:52.533Z,41.00
2018-05-17T01:01:22.051Z,42.60
2018-05-17T01:03:51.030Z,46.60
2018-05-17T01:06:20.478Z,42.40
2018-05-17T01:08:49.860Z,45.20
2018-05-17T01:11:19.677Z,45.20
2018-05-17T01:13:49.504Z,42.00
2018-05-17T01:16:18.901Z,45.60
2018-05-17T01:18:48.246Z,43.20
2018-05-17T01:21:17.806Z,48.40
2018-05-17T01:23:47.146Z,47.40
2018-05-17T01:26:16.702Z,43.40
2018-05-17T01:28:47.312Z,50.60
2018-05-17T01:31:17.582Z,44.80
2018-05-17T01:33:46.663Z,49.60
2018-05-17T01:36:15.779Z,51.80
2018-05-17T01:38:45.418Z,46.20
2018-05-17T01:44:11.324Z,44.80
2018-05-17T01:46:40.423Z,44.20
2018-05-17T01:49:08.925Z,52.40
2018-05-17T01:51:37.846Z,51.60
2018-05-17T01:54:06.682Z,50.40
2018-05-17T01:56:35.592Z,47.80
2018-05-17T01:59:04.963Z,54.20
2018-05-17T02:01:34.069Z,58.60
2018-05-17T02:04:04.051Z,60.40
2018-05-17T02:06:33.614Z,59.80
2018-05-17T02:09:02.909Z,55.20
2018-05-17T02:11:32.401Z,58.00
2018-05-17T02:14:02.085Z,57.40
2018-05-17T02:16:32.006Z,62.40
2018-05-17T02:19:02.031Z,56.00
2018-05-17T02:21:31.447Z,54.20
2018-05-17T02:24:00.706Z,62.60
2018-05-17T02:26:30.312Z,67.60
2018-05-17T02:29:00.509Z,73.00
2018-05-17T02:31:30.154Z,73.40
2018-05-17T02:33:59.466Z,72.20
2018-05-17T02:36:28.307Z,75.60
2018-05-17T02:38:57.479Z,70.40
2018-05-17T02:41:27.232Z,75.20
2018-05-17T02:43:56.932Z,79.60
2018-05-17T02:46:27.406Z,73.80
2018-05-17T02:48:57.134Z,80.60
2018-05-17T02:51:27.310Z,78.80
2018-05-17T02:53:57.134Z,78.00
2018-05-17T02:56:26.397Z,75.80
2018-05-17T02:58:55.791Z,78.00
2018-05-17T03:01:25.101Z,85.00
2018-05-17T03:03:54.327Z,78.80
2018-05-17T03:06:24.138Z,76.20
2018-05-17T03:08:53.626Z,75.20
2018-05-17T03:11:23.454Z,73.20
2018-05-17T03:13:52.942Z,72.60
2018-05-17T03:16:22.949Z,69.00
2018-05-17T03:18:53.058Z,70.00
2018-05-17T03:21:22.291Z,71.80
2018-05-17T03:23:51.775Z,72.00
2018-05-17T03:26:21.201Z,69.80
2018-05-17T03:28:50.646Z,61.80
2018-05-17T03:31:20.575Z,62.80
2018-05-17T03:33:50.102Z,58.20
2018-05-17T03:36:21.190Z,58.00
2018-05-17T03:38:50.330Z,59.20
2018-05-17T03:41:19.617Z,59.40
2018-05-17T03:43:49.447Z,49.40
2018-05-17T03:46:19.018Z,53.80
2018-05-17T03:48:48.293Z,54.20
2018-05-17T03:51:17.178Z,47.80
2018-05-17T03:53:47.026Z,51.40
2018-05-17T03:56:16.654Z,52.00
2018-05-17T03:58:45.843Z,50.20
2018-05-17T04:01:26.540Z,49.00
2018-05-17T04:04:07.960Z,46.00
2018-05-17T04:06:46.784Z,50.20
2018-05-17T04:09:15.947Z,52.00
2018-05-17T04:11:45.314Z,48.00
2018-05-17T04:14:14.106Z,49.40
2018-05-17T04:16:43.704Z,45.40
2018-05-17T04:19:13.118Z,45.60
2018-05-17T04:21:42.660Z,47.40
2018-05-17T04:24:12.542Z,45.20
2018-05-17T04:26:42.854Z,43.20
2018-05-17T04:29:12.744Z,42.80
2018-05-17T04:31:43.171Z,42.00
2018-05-17T04:34:12.696Z,43.20
2018-05-17T04:36:42.160Z,40.60
2018-05-17T04:39:11.665Z,40.20
2018-05-17T04:41:40.973Z,38.20
2018-05-17T04:44:10.474Z,40.40
2018-05-17T04:46:39.501Z,42.00
2018-05-17T04:49:09.089Z,36.00
2018-05-17T04:51:38.339Z,36.00
2018-05-17T04:54:08.028Z,38.00
2018-05-17T04:56:38.275Z,38.60
2018-05-17T04:59:09.870Z,33.20
2018-05-17T05:01:39.507Z,34.20
2018-05-17T05:04:08.715Z,34.60
2018-05-17T05:06:38.123Z,36.20
2018-05-17T05:09:07.509Z,34.60
2018-05-17T05:11:36.516Z,34.00
2018-05-17T05:14:06.174Z,35.40
2018-05-17T05:16:35.846Z,34.80
2018-05-17T05:19:04.958Z,32.20
2018-05-17T05:21:34.955Z,33.40
2018-05-17T05:24:04.971Z,32.20
2018-05-17T05:26:34.685Z,34.60
2018-05-17T05:29:04.066Z,34.40
2018-05-17T05:31:33.818Z,32.00
2018-05-17T05:34:05.596Z,33.20
2018-05-17T05:36:35.699Z,31.60
2018-05-17T05:39:06.466Z,32.40
2018-05-17T05:41:36.622Z,32.00
2018-05-17T05:44:05.682Z,32.00
2018-05-17T05:46:38.292Z,32.00
2018-05-17T05:49:08.720Z,32.00
2018-05-17T05:51:38.203Z,32.40
2018-05-17T05:54:09.575Z,31.40
2018-05-17T05:56:39.438Z,31.20
2018-05-17T05:59:08.901Z,31.00
2018-05-17T06:01:38.828Z,30.20
2018-05-17T06:04:12.141Z,31.20
2018-05-17T06:06:41.511Z,31.00
2018-05-17T06:09:10.577Z,29.40
2018-05-17T06:11:39.923Z,29.20
2018-05-17T06:14:09.818Z,30.00
2018-05-17T06:16:40.003Z,28.40
2018-05-17T06:19:09.352Z,28.20
2018-05-17T06:21:38.065Z,27.80
2018-05-17T06:24:07.933Z,27.60
2018-05-17T06:26:38.424Z,27.20
2018-05-17T06:29:09.820Z,28.00
2018-05-17T06:31:39.614Z,28.20
2018-05-17T06:34:09.442Z,26.00
2018-05-17T06:36:38.911Z,26.00
2018-05-17T06:39:09.176Z,27.20
2018-05-17T06:41:38.766Z,26.00
2018-05-17T06:44:07.917Z,24.40
2018-05-17T06:46:37.251Z,26.80
2018-05-17T06:49:07.768Z,26.40
2018-05-17T06:51:41.817Z,27.40
2018-05-17T06:54:13.322Z,26.40
2018-05-17T06:56:44.779Z,26.60
2018-05-17T06:59:16.787Z,27.00
2018-05-17T07:01:47.471Z,26.00
2018-05-17T07:04:19.453Z,26.00
2018-05-17T07:06:50.459Z,26.20
2018-05-17T07:09:23.634Z,26.00
2018-05-17T07:11:53.641Z,23.60
2018-05-17T07:14:26.860Z,25.80
2018-05-17T07:16:55.925Z,26.20
2018-05-17T07:19:27.854Z,26.00
2018-05-17T07:21:57.234Z,26.20
2018-05-17T07:24:26.986Z,24.60
2018-05-17T07:26:58.747Z,24.40
2018-05-17T07:29:29.052Z,23.60
2018-05-17T07:31:59.052Z,23.00
2018-05-17T07:34:30.050Z,22.00
2018-05-17T07:37:03.478Z,20.80
2018-05-17T07:39:34.060Z,22.40
2018-05-17T07:42:04.971Z,22.20
2018-05-17T07:44:34.687Z,21.40
2018-05-17T07:47:05.133Z,22.40
2018-05-17T07:49:35.038Z,22.80
2018-05-17T07:52:04.702Z,21.80
2018-05-17T07:54:35.388Z,19.80
2018-05-17T07:57:04.891Z,22.20
2018-05-17T07:59:34.305Z,22.20
2018-05-17T08:04:45.859Z,22.20
2018-05-17T08:07:15.352Z,20.20
2018-05-17T08:09:45.373Z,19.80
2018-05-17T08:12:15.037Z,20.80
2018-05-17T08:14:44.334Z,20.00
2018-05-17T08:17:14.242Z,22.60
2018-05-17T08:19:44.095Z,22.00
2018-05-17T08:22:14.270Z,21.80
2018-05-17T08:24:43.522Z,21.80
2018-05-17T08:27:13.074Z,22.00
2018-05-17T08:29:42.718Z,23.80
2018-05-17T08:32:12.682Z,21.80
2018-05-17T08:34:43.693Z,21.80
2018-05-17T08:37:13.666Z,22.20
2018-05-17T08:39:42.866Z,24.00
2018-05-17T08:42:12.185Z,23.00
2018-05-17T08:44:41.655Z,23.00
2018-05-17T08:47:11.613Z,23.00
2018-05-17T08:49:40.796Z,23.60
2018-05-17T08:52:10.252Z,22.40
2018-05-17T08:54:40.309Z,21.20
2018-05-17T08:57:10.053Z,21.20
2018-05-17T08:59:40.709Z,20.20
2018-05-17T09:02:09.816Z,21.40
2018-05-17T09:04:38.843Z,20.00
2018-05-17T09:07:08.610Z,20.00
2018-05-17T09:09:37.743Z,20.00
2018-05-17T09:12:06.865Z,20.20
2018-05-17T09:14:37.488Z,20.00
2018-05-17T09:17:07.118Z,22.00
2018-05-17T09:19:37.226Z,17.40
2018-05-17T09:22:06.112Z,21.20
2018-05-17T09:24:36.789Z,21.00
2018-05-17T09:27:05.881Z,20.60
2018-05-17T09:29:36.190Z,22.20
2018-05-17T09:32:05.016Z,22.80
2018-05-17T09:34:35.253Z,22.00
2018-05-17T09:37:05.811Z,22.00
2018-05-17T09:39:35.017Z,21.40
2018-05-17T09:42:05.089Z,21.20
2018-05-17T09:44:34.700Z,21.20
2018-05-17T09:47:04.004Z,20.60
2018-05-17T09:49:33.316Z,22.00
2018-05-17T09:52:02.421Z,19.80
2018-05-17T09:54:31.656Z,22.20
2018-05-17T09:57:02.596Z,20.60
2018-05-17T09:59:31.992Z,19.00
2018-05-17T10:02:01.382Z,21.40
2018-05-17T10:04:31.214Z,22.00
2018-05-17T10:07:00.772Z,22.40
2018-05-17T10:09:30.391Z,22.00
2018-05-17T10:11:59.956Z,20.80
2018-05-17T10:14:30.014Z,20.00
2018-05-17T10:16:59.161Z,22.00
2018-05-17T10:19:28.623Z,20.80
2018-05-17T10:21:57.606Z,22.20
2018-05-17T10:24:27.597Z,21.00
2018-05-17T10:26:56.920Z,20.80
2018-05-17T10:29:26.175Z,20.20
2018-05-17T10:31:55.950Z,19.80
2018-05-17T10:34:25.735Z,21.00
2018-05-17T10:36:54.960Z,21.60
2018-05-17T10:39:25.151Z,22.00
2018-05-17T10:41:54.655Z,20.40
2018-05-17T10:44:24.521Z,22.60
2018-05-17T10:46:54.185Z,23.00
2018-05-17T10:49:23.890Z,23.20
2018-05-17T10:51:53.654Z,23.00
2018-05-17T10:54:22.976Z,21.60
2018-05-17T10:56:52.445Z,21.60
2018-05-17T10:59:21.609Z,21.80
2018-05-17T11:01:50.816Z,21.60
2018-05-17T11:04:20.727Z,21.40
2018-05-17T11:06:50.495Z,22.00
2018-05-17T11:09:20.007Z,19.80
2018-05-17T11:11:49.232Z,22.00
2018-05-17T11:14:19.101Z,23.00
2018-05-17T11:16:48.136Z,20.00
2018-05-17T11:19:17.564Z,20.80
2018-05-17T11:21:47.371Z,19.80
2018-05-17T11:24:17.230Z,21.20
2018-05-17T11:26:46.724Z,20.60
2018-05-17T11:29:16.022Z,20.60
2018-05-17T11:31:46.266Z,23.00
2018-05-17T11:34:15.627Z,21.40
2018-05-17T11:36:45.716Z,21.40
2018-05-17T11:39:15.388Z,21.40
2018-05-17T11:41:45.476Z,21.80
2018-05-17T11:44:15.137Z,21.00
2018-05-17T11:46:44.616Z,22.20
2018-05-17T11:49:14.167Z,22.00
2018-05-17T11:51:43.400Z,21.60
2018-05-17T11:54:12.506Z,21.00
2018-05-17T11:56:41.787Z,20.60
2018-05-17T11:59:10.655Z,20.80
2018-05-17T12:01:40.117Z,22.00
2018-05-17T12:04:10.304Z,22.00
2018-05-17T12:06:39.815Z,21.60
2018-05-17T12:09:09.613Z,21.80
2018-05-17T12:11:40.080Z,21.00
2018-05-17T12:14:09.043Z,21.20
2018-05-17T12:16:38.653Z,21.80
2018-05-17T12:19:08.511Z,21.20
2018-05-17T12:21:38.688Z,21.80
2018-05-17T12:24:08.777Z,21.40
2018-05-17T12:26:37.797Z,20.40
2018-05-17T12:29:07.871Z,21.40
2018-05-17T12:31:37.225Z,20.60
2018-05-17T12:34:06.703Z,20.20
2018-05-17T12:36:35.967Z,22.00
2018-05-17T12:39:07.469Z,21.80
2018-05-17T12:41:36.173Z,22.40
2018-05-17T12:44:06.305Z,22.00
2018-05-17T12:46:35.518Z,19.20
2018-05-17T12:49:04.778Z,21.40
2018-05-17T12:51:34.793Z,21.20
2018-05-17T12:54:04.942Z,21.80
2018-05-17T12:56:36.134Z,19.20
2018-05-17T12:59:06.000Z,20.80
2018-05-17T13:01:35.104Z,21.80
2018-05-17T13:04:04.731Z,22.40
2018-05-17T13:06:34.103Z,20.40
2018-05-17T13:09:03.365Z,20.20
2018-05-17T13:11:33.547Z,19.00
2018-05-17T13:14:02.763Z,23.20
2018-05-17T13:16:32.711Z,23.00
2018-05-17T13:19:01.972Z,22.20
2018-05-17T13:21:32.450Z,12.60
2018-05-17T13:24:02.421Z,23.60
2018-05-17T13:26:32.376Z,21.20
2018-05-17T13:29:01.675Z,22.20
2018-05-17T13:31:31.045Z,22.20
2018-05-17T13:34:00.432Z,22.80
2018-05-17T13:36:29.453Z,22.00
2018-05-17T13:38:59.278Z,22.80
2018-05-17T13:41:28.319Z,22.40
2018-05-17T13:43:57.982Z,22.00
2018-05-17T13:46:31.573Z,22.20
2018-05-17T13:49:01.243Z,21.60
2018-05-17T13:51:31.420Z,23.00
2018-05-17T13:54:00.880Z,21.20
2018-05-17T13:56:30.630Z,21.20
2018-05-17T13:58:59.935Z,21.80
2018-05-17T14:01:29.378Z,21.00
2018-05-17T14:03:59.549Z,20.60
2018-05-17T14:06:28.468Z,20.00
2018-05-17T14:08:59.035Z,20.60
2018-05-17T14:11:28.143Z,20.40
2018-05-17T14:13:57.919Z,21.60
2018-05-17T14:16:27.455Z,22.00
2018-05-17T14:18:56.829Z,21.00
2018-05-17T14:21:26.329Z,22.40
2018-05-17T14:23:56.060Z,23.60
2018-05-17T14:26:25.095Z,24.00
2018-05-17T14:28:55.297Z,22.20
2018-05-17T14:31:25.195Z,24.40
2018-05-17T14:33:54.740Z,26.00
2018-05-17T14:36:24.309Z,25.40
2018-05-17T14:38:53.917Z,26.00
2018-05-17T14:41:24.167Z,27.40
2018-05-17T14:43:53.866Z,27.80
2018-05-17T14:46:23.042Z,27.00
2018-05-17T14:48:52.647Z,26.80
2018-05-17T14:51:21.500Z,25.20
2018-05-17T14:53:50.324Z,26.80
2018-05-17T14:56:19.331Z,29.40
2018-05-17T14:58:49.180Z,29.60
2018-05-17T15:01:18.396Z,28.20
2018-05-17T15:03:47.751Z,29.40
2018-05-17T15:06:17.010Z,27.60
2018-05-17T15:08:45.928Z,27.40
2018-05-17T15:11:15.928Z,27.00
2018-05-17T15:13:45.506Z,24.40
2018-05-17T15:16:15.315Z,25.60
2018-05-17T15:18:44.452Z,26.00
2018-05-17T15:21:13.961Z,26.00
2018-05-17T15:23:43.836Z,25.00
2018-05-17T15:26:13.019Z,24.00
2018-05-17T15:28:42.361Z,23.00
2018-05-17T15:31:11.196Z,22.80
2018-05-17T15:33:40.701Z,23.00
2018-05-17T15:36:10.602Z,23.00
2018-05-17T15:38:40.613Z,23.00
2018-05-17T15:41:10.278Z,22.00
2018-05-17T15:43:40.087Z,22.80
2018-05-17T15:46:09.583Z,22.00
2018-05-17T15:48:39.065Z,19.60
2018-05-17T15:51:08.971Z,22.00
2018-05-17T15:53:38.417Z,20.00
2018-05-17T15:56:07.731Z,20.20
2018-05-17T15:58:37.417Z,18.40
2018-05-17T16:01:06.620Z,21.40
2018-05-17T16:03:36.126Z,20.00
2018-05-17T16:06:05.108Z,19.00
2018-05-17T16:08:34.219Z,18.40
2018-05-17T16:18:06.494Z,17.80
2018-05-17T16:20:36.210Z,19.20
2018-05-17T16:23:06.099Z,20.00
2018-05-17T16:25:35.506Z,17.80
2018-05-17T16:28:05.477Z,18.00
2018-05-17T16:30:35.517Z,16.00
2018-05-17T16:33:05.722Z,19.20
2018-05-17T16:35:34.631Z,18.00
2018-05-17T16:38:04.011Z,18.20
2018-05-17T16:40:33.246Z,18.00
2018-05-17T16:43:02.349Z,17.40
2018-05-17T16:45:32.787Z,19.60
2018-05-17T16:48:02.020Z,13.60
2018-05-17T16:50:31.108Z,16.20
2018-05-17T16:53:04.906Z,17.00
2018-05-17T16:55:34.023Z,18.40
2018-05-17T16:58:04.389Z,16.60
2018-05-17T17:00:34.705Z,17.00
2018-05-17T17:03:04.191Z,14.60
2018-05-17T17:05:35.123Z,15.00
2018-05-17T17:08:04.599Z,14.60
2018-05-17T17:10:35.041Z,17.80
2018-05-17T17:13:04.564Z,16.20
2018-05-17T17:15:34.691Z,18.40
2018-05-17T17:18:04.567Z,14.80
2018-05-17T17:20:34.887Z,14.60
2018-05-17T17:23:05.190Z,14.80
2018-05-17T17:25:34.656Z,16.00
2018-05-17T17:28:04.637Z,15.40
2018-05-17T17:30:34.452Z,16.60
2018-05-17T17:33:03.841Z,16.60
2018-05-17T17:35:33.193Z,15.60
2018-05-17T17:38:03.194Z,15.20
2018-05-17T17:40:37.400Z,15.80
2018-05-17T17:43:07.668Z,14.80
2018-05-17T17:45:37.054Z,16.40
2018-05-17T17:48:06.398Z,14.00
2018-05-17T17:50:35.735Z,14.80
2018-05-17T17:53:05.625Z,13.00
2018-05-17T17:55:36.107Z,14.00
2018-05-17T17:58:05.874Z,14.20
2018-05-17T18:00:35.291Z,15.40
2018-05-17T18:03:04.608Z,15.80
2018-05-17T18:05:34.003Z,14.60
2018-05-17T18:08:03.605Z,14.00
2018-05-17T18:10:34.199Z,14.60
2018-05-17T18:13:04.128Z,15.80
2018-05-17T18:15:33.714Z,13.00
2018-05-17T18:18:03.913Z,14.20
2018-05-17T18:20:34.496Z,14.80
2018-05-17T18:23:04.392Z,14.80
2018-05-17T18:25:33.773Z,13.60
2018-05-17T18:28:02.653Z,14.40
2018-05-17T18:30:35.618Z,14.40
2018-05-17T18:33:04.903Z,15.00
2018-05-17T18:35:34.223Z,13.80
2018-05-17T18:38:03.553Z,13.80
2018-05-17T18:40:33.672Z,14.60
2018-05-17T18:43:03.025Z,15.20
2018-05-17T18:45:33.636Z,15.60
2018-05-17T18:48:02.797Z,13.00
2018-05-17T18:50:33.127Z,16.20
2018-05-17T18:53:02.238Z,15.80
2018-05-17T18:55:31.221Z,14.00
2018-05-17T18:58:00.661Z,13.80
2018-05-17T19:00:30.152Z,13.40
2018-05-17T19:02:59.813Z,14.60
2018-05-17T19:05:29.404Z,15.80
2018-05-17T19:07:59.012Z,16.20
2018-05-17T19:10:28.338Z,16.60
2018-05-17T19:12:59.761Z,16.40
2018-05-17T19:15:29.736Z,16.20
2018-05-17T19:17:59.263Z,15.80
2018-05-17T19:20:28.734Z,17.00
2018-05-17T19:22:58.692Z,17.00
2018-05-17T19:25:35.371Z,16.40
2018-05-17T19:28:04.960Z,18.40
2018-05-17T19:30:34.506Z,15.20
2018-05-17T19:33:03.589Z,19.60
2018-05-17T19:35:33.094Z,18.80
2018-05-17T19:38:02.598Z,16.60
2018-05-17T19:40:31.636Z,16.80
2018-05-17T19:43:01.044Z,17.60
2018-05-17T19:45:31.176Z,17.40
2018-05-17T19:48:01.004Z,17.40
2018-05-17T19:50:30.518Z,15.60
2018-05-17T19:53:00.037Z,17.40
2018-05-17T19:55:29.584Z,17.20
2018-05-17T19:57:58.797Z,14.40
2018-05-17T20:00:28.228Z,16.80
2018-05-17T20:02:58.090Z,16.20
2018-05-17T20:05:28.153Z,16.00
2018-05-17T20:07:57.861Z,17.20
2018-05-17T20:10:26.894Z,18.60
2018-05-17T20:12:56.231Z,17.20
2018-05-17T20:15:26.509Z,14.20
2018-05-17T20:17:55.679Z,17.00
2018-05-17T20:20:24.804Z,19.00
2018-05-17T20:22:54.161Z,17.40
2018-05-17T20:25:23.623Z,16.60
2018-05-17T20:27:52.623Z,17.20
2018-05-17T20:30:23.124Z,17.20
2018-05-17T20:32:53.250Z,17.80
2018-05-17T20:35:22.726Z,19.00
2018-05-17T20:37:51.733Z,17.60
2018-05-17T20:40:20.745Z,17.00
2018-05-17T20:42:49.808Z,15.20
2018-05-17T20:45:19.629Z,16.40
2018-05-17T20:47:49.963Z,16.00
2018-05-17T20:50:18.807Z,15.20
2018-05-17T20:52:48.466Z,15.00
2018-05-17T20:55:17.952Z,16.20
2018-05-17T20:57:47.688Z,16.80
2018-05-17T21:00:17.599Z,18.60
2018-05-17T21:02:46.403Z,18.00
2018-05-17T21:05:15.459Z,15.60
2018-05-17T21:07:45.354Z,19.00
2018-05-17T21:10:14.829Z,18.40
2018-05-17T21:12:44.513Z,18.80
2018-05-17T21:15:13.614Z,17.00
2018-05-17T21:17:43.133Z,16.60
2018-05-17T21:20:12.286Z,17.20
2018-05-17T21:22:41.207Z,16.60
2018-05-17T21:25:10.748Z,15.40
2018-05-17T21:27:40.394Z,18.60
2018-05-17T21:30:10.544Z,20.00
2018-05-17T21:32:39.957Z,20.00
2018-05-17T21:35:09.041Z,20.20
2018-05-17T21:37:38.988Z,22.00
2018-05-17T21:40:08.882Z,21.00
2018-05-17T21:42:38.689Z,20.00
2018-05-17T21:45:07.804Z,17.00
2018-05-17T21:47:37.064Z,19.20
2018-05-17T21:50:06.934Z,21.40
2018-05-17T21:52:36.084Z,21.20
2018-05-17T21:55:05.749Z,21.00
2018-05-17T21:57:35.615Z,21.40
2018-05-17T22:00:05.120Z,22.40
2018-05-17T22:02:34.793Z,21.40
2018-05-17T22:05:04.114Z,21.40
2018-05-17T22:07:33.997Z,22.20
2018-05-17T22:10:02.965Z,22.00
2018-05-17T22:12:32.857Z,22.80
2018-05-17T22:15:02.431Z,23.00
2018-05-17T22:17:31.418Z,19.20
2018-05-17T22:20:00.808Z,21.40
2018-05-17T22:22:29.605Z,21.40
2018-05-17T22:24:59.320Z,21.40
2018-05-17T22:27:28.815Z,22.40
2018-05-17T22:29:57.871Z,20.20
2018-05-17T22:32:27.270Z,22.00
2018-05-17T22:34:57.034Z,23.00
2018-05-17T22:37:26.284Z,22.00
2018-05-17T22:39:57.318Z,22.20
2018-05-17T22:42:26.341Z,25.00
2018-05-17T22:44:56.186Z,23.20
2018-05-17T22:47:25.328Z,22.20
2018-05-17T22:49:55.406Z,22.60
2018-05-17T22:52:26.818Z,23.00
2018-05-17T22:54:56.296Z,24.80
2018-05-17T22:57:37.230Z,23.00
2018-05-17T23:00:07.045Z,21.20
2018-05-17T23:02:36.535Z,23.60
2018-05-17T23:05:05.727Z,22.80
2018-05-17T23:07:35.443Z,22.00
2018-05-17T23:10:05.536Z,23.00
2018-05-17T23:12:35.138Z,23.20
2018-05-17T23:15:04.463Z,22.40
2018-05-17T23:17:33.228Z,23.00
2018-05-17T23:20:02.578Z,23.60
2018-05-17T23:22:40.688Z,23.80
2018-05-17T23:25:10.938Z,24.20
2018-05-17T23:27:39.922Z,22.80
2018-05-17T23:30:09.472Z,20.20
2018-05-17T23:32:39.125Z,22.40
2018-05-17T23:35:08.652Z,24.20
2018-05-17T23:37:38.203Z,24.60
2018-05-17T23:40:18.877Z,26.00
2018-05-17T23:42:48.371Z,23.80
2018-05-17T23:45:18.203Z,23.40
2018-05-17T23:47:47.208Z,24.80
2018-05-17T23:50:16.324Z,24.60
2018-05-17T23:52:46.944Z,23.00
2018-05-17T23:55:16.417Z,24.00
2018-05-17T23:57:46.276Z,23.80
